createdAt,value
2017-09-16T00:00:23.786Z,69.3
2017-09-16T00:01:26.229Z,69.2
2017-09-16T00:02:28.671Z,69.2
2017-09-16T00:03:31.118Z,69.2
2017-09-16T00:04:33.566Z,69.2
2017-09-16T00:05:36.011Z,69.2
2017-09-16T00:06:38.446Z,69.2
2017-09-16T00:07:40.887Z,69.2
2017-09-16T00:08:43.327Z,69.2
2017-09-16T00:09:45.776Z,69.1
2017-09-16T00:11:20.319Z,69.1
2017-09-16T00:12:22.719Z,69.1
2017-09-16T00:13:25.096Z,69.2
2017-09-16T00:14:27.499Z,69.1
2017-09-16T00:15:29.892Z,69.2
2017-09-16T00:16:32.273Z,69.2
2017-09-16T00:17:34.660Z,69.1
2017-09-16T00:18:37.052Z,69.1
2017-09-16T00:19:39.439Z,69.2
2017-09-16T00:20:41.837Z,69.1
2017-09-16T00:21:44.216Z,69.3
2017-09-16T00:22:46.605Z,69.3
2017-09-16T00:23:48.990Z,69.3
2017-09-16T00:24:51.378Z,69.1
2017-09-16T00:25:53.766Z,69.2
2017-09-16T00:26:56.506Z,69.2
2017-09-16T00:27:58.891Z,69.3
2017-09-16T00:29:01.313Z,69.3
2017-09-16T00:30:03.729Z,69.4
2017-09-16T00:31:06.115Z,69.4
2017-09-16T00:32:08.502Z,69.4
2017-09-16T00:33:11.260Z,69.4
2017-09-16T00:34:13.986Z,69.4
2017-09-16T00:35:16.376Z,69.4
2017-09-16T00:36:18.761Z,69.3
2017-09-16T00:37:21.153Z,69.3
2017-09-16T00:38:23.537Z,69.3
2017-09-16T00:39:25.920Z,69.4
2017-09-16T00:40:28.319Z,69.4
2017-09-16T00:41:31.038Z,69.4
2017-09-16T00:42:33.421Z,69.4
2017-09-16T00:43:35.813Z,69.5
2017-09-16T00:44:38.203Z,69.5
2017-09-16T00:45:40.592Z,69.6
2017-09-16T00:46:42.986Z,69.6
2017-09-16T00:47:45.361Z,69.5
2017-09-16T00:48:47.749Z,69.5
2017-09-16T00:49:50.140Z,69.4
2017-09-16T00:50:52.529Z,69.6
2017-09-16T00:51:54.918Z,69.5
2017-09-16T00:52:57.300Z,69.7
2017-09-16T00:53:59.687Z,69.7
2017-09-16T00:55:02.084Z,69.7
2017-09-16T00:56:04.472Z,69.7
2017-09-16T00:57:07.200Z,69.7
2017-09-16T00:58:09.590Z,69.6
2017-09-16T00:59:11.976Z,69.7
2017-09-16T01:00:14.701Z,69.5
2017-09-16T01:01:17.424Z,69.6
2017-09-16T01:02:20.161Z,69.7
2017-09-16T01:03:22.551Z,69.7
2017-09-16T01:04:24.942Z,69.7
2017-09-16T01:05:27.336Z,69.7
2017-09-16T01:06:29.722Z,69.7
2017-09-16T01:07:32.106Z,69.5
2017-09-16T01:08:34.494Z,69.6
2017-09-16T01:09:37.215Z,69.6
2017-09-16T01:10:39.939Z,69.5
2017-09-16T01:11:42.320Z,69.6
2017-09-16T01:12:44.709Z,69.6
2017-09-16T01:13:47.117Z,69.6
2017-09-16T01:14:49.505Z,69.6
2017-09-16T01:15:51.900Z,69.7
2017-09-16T01:16:54.632Z,69.6
2017-09-16T01:17:57.019Z,69.7
2017-09-16T01:18:59.410Z,69.6
2017-09-16T01:20:02.158Z,69.6
2017-09-16T01:21:04.545Z,69.7
2017-09-16T01:22:06.939Z,69.7
2017-09-16T01:23:09.321Z,69.7
2017-09-16T01:24:11.704Z,69.6
2017-09-16T01:25:14.097Z,69.6
2017-09-16T01:26:16.487Z,69.8
2017-09-16T01:27:19.205Z,69.8
2017-09-16T01:28:21.603Z,69.8
2017-09-16T01:29:23.986Z,69.8
2017-09-16T01:30:26.725Z,69.9
2017-09-16T01:31:29.120Z,69.9
2017-09-16T01:32:31.506Z,69.9
2017-09-16T01:33:33.899Z,69.9
2017-09-16T01:34:36.284Z,69.8
2017-09-16T01:35:38.680Z,69.9
2017-09-16T01:36:41.067Z,70
2017-09-16T01:37:43.444Z,70
2017-09-16T01:38:45.844Z,70
2017-09-16T01:39:48.230Z,70
2017-09-16T01:40:50.619Z,69.9
2017-09-16T01:41:53.007Z,69.9
2017-09-16T01:42:55.394Z,69.9
2017-09-16T01:43:57.783Z,70
2017-09-16T01:45:00.187Z,70
2017-09-16T01:46:02.566Z,70
2017-09-16T01:47:04.954Z,70.1
2017-09-16T01:48:07.339Z,70.1
2017-09-16T01:49:09.727Z,70.1
2017-09-16T01:50:12.248Z,70
2017-09-16T01:51:14.640Z,70
2017-09-16T01:52:17.019Z,70.1
2017-09-16T01:53:19.752Z,70
2017-09-16T01:54:22.477Z,70
2017-09-16T01:55:25.206Z,70
2017-09-16T01:56:27.935Z,70.2
2017-09-16T01:57:30.320Z,70.3
2017-09-16T01:58:32.705Z,70.3
2017-09-16T01:59:35.099Z,70.3
2017-09-16T02:00:37.486Z,70.2
2017-09-16T02:01:39.871Z,70.3
2017-09-16T02:02:42.256Z,70.4
2017-09-16T02:03:44.649Z,70.5
2017-09-16T02:04:47.033Z,70.5
2017-09-16T02:05:49.419Z,70.5
2017-09-16T02:06:52.153Z,70.5
2017-09-16T02:07:54.544Z,70.5
2017-09-16T02:08:57.286Z,70.5
2017-09-16T02:09:59.685Z,70.5
2017-09-16T02:11:02.057Z,70.5
2017-09-16T02:12:04.795Z,70.5
2017-09-16T02:13:07.188Z,70.4
2017-09-16T02:14:09.573Z,70.4
2017-09-16T02:15:11.955Z,70.5
2017-09-16T02:16:14.339Z,70.5
2017-09-16T02:17:16.723Z,70.4
2017-09-16T02:18:19.113Z,70.6
2017-09-16T02:19:21.497Z,70.5
2017-09-16T02:20:23.890Z,70.6
2017-09-16T02:21:26.271Z,70.5
2017-09-16T02:22:28.656Z,70.5
2017-09-16T02:23:31.048Z,70.5
2017-09-16T02:24:33.431Z,70.6
2017-09-16T02:25:35.810Z,70.6
2017-09-16T02:26:38.198Z,70.5
2017-09-16T02:27:40.586Z,70.6
2017-09-16T02:28:42.977Z,70.5
2017-09-16T02:29:45.360Z,70.5
2017-09-16T02:30:47.746Z,70.5
2017-09-16T02:31:50.136Z,70.5
2017-09-16T02:32:52.532Z,70.5
2017-09-16T02:33:54.914Z,70.6
2017-09-16T02:34:57.289Z,70.6
2017-09-16T02:35:59.684Z,70.6
2017-09-16T02:37:02.076Z,70.5
2017-09-16T02:38:04.463Z,70.7
2017-09-16T02:39:06.855Z,70.6
2017-09-16T02:40:09.243Z,70.6
2017-09-16T02:41:11.627Z,70.7
2017-09-16T02:42:14.368Z,70.6
2017-09-16T02:43:17.083Z,70.7
2017-09-16T02:44:19.468Z,70.7
2017-09-16T02:45:21.854Z,70.7
2017-09-16T02:46:24.237Z,70.8
2017-09-16T02:47:26.965Z,70.8
2017-09-16T02:48:29.359Z,70.7
2017-09-16T02:49:31.740Z,70.8
2017-09-16T02:50:34.131Z,70.9
2017-09-16T02:51:36.524Z,70.9
2017-09-16T02:52:38.907Z,70.9
2017-09-16T02:53:41.289Z,70.9
2017-09-16T02:54:43.682Z,70.9
2017-09-16T02:55:46.067Z,70.9
2017-09-16T02:56:48.470Z,70.9
2017-09-16T02:57:50.858Z,71
2017-09-16T02:58:53.242Z,70.9
2017-09-16T02:59:55.621Z,70.9
2017-09-16T03:00:58.011Z,70.9
2017-09-16T03:02:00.394Z,70.9
2017-09-16T03:03:02.795Z,70.9
2017-09-16T03:04:05.180Z,70.9
2017-09-16T03:05:07.912Z,71
2017-09-16T03:06:10.286Z,71.1
2017-09-16T03:07:12.679Z,71.1
2017-09-16T03:08:15.071Z,71.1
2017-09-16T03:09:17.805Z,71
2017-09-16T03:10:20.189Z,71.1
2017-09-16T03:11:22.577Z,71.1
2017-09-16T03:12:24.964Z,71.1
2017-09-16T03:13:27.355Z,71.2
2017-09-16T03:14:29.747Z,71.2
2017-09-16T03:15:32.129Z,71.2
2017-09-16T03:16:34.514Z,71.2
2017-09-16T03:17:37.251Z,71.2
2017-09-16T03:18:39.630Z,71.3
2017-09-16T03:19:42.014Z,71.2
2017-09-16T03:20:44.736Z,71.3
2017-09-16T03:21:47.130Z,71.3
2017-09-16T03:22:49.513Z,71.2
2017-09-16T03:23:51.907Z,71.3
2017-09-16T03:24:54.288Z,71.3
2017-09-16T03:25:56.682Z,71.2
2017-09-16T03:26:59.074Z,71.3
2017-09-16T03:28:01.462Z,71.2
2017-09-16T03:29:03.854Z,71.3
2017-09-16T03:30:06.584Z,71.3
2017-09-16T03:31:09.299Z,71.2
2017-09-16T03:32:12.039Z,71.2
2017-09-16T03:33:14.429Z,71.3
2017-09-16T03:34:16.805Z,71.3
2017-09-16T03:35:19.189Z,71.3
2017-09-16T03:36:21.583Z,71.3
2017-09-16T03:37:23.970Z,71.3
2017-09-16T03:38:26.356Z,71.4
2017-09-16T03:39:28.742Z,71.3
2017-09-16T03:40:31.124Z,71.3
2017-09-16T03:41:33.855Z,71.3
2017-09-16T03:42:36.247Z,71.2
2017-09-16T03:43:38.627Z,71.2
2017-09-16T03:44:41.018Z,71.2
2017-09-16T03:45:43.413Z,71.3
2017-09-16T03:46:45.795Z,71.2
2017-09-16T03:47:48.183Z,71.2
2017-09-16T03:48:50.593Z,71.2
2017-09-16T03:49:52.978Z,71.3
2017-09-16T03:50:55.366Z,71.1
2017-09-16T03:51:57.762Z,71.2
2017-09-16T03:53:00.135Z,71.3
2017-09-16T03:54:02.878Z,71.1
2017-09-16T03:55:05.261Z,71.2
2017-09-16T03:56:07.654Z,71.2
2017-09-16T03:57:10.042Z,71.2
2017-09-16T03:58:12.422Z,71.3
2017-09-16T03:59:14.810Z,71.3
2017-09-16T04:00:17.196Z,71.3
2017-09-16T04:01:19.582Z,71.4
2017-09-16T04:02:21.966Z,71.4
2017-09-16T04:03:24.359Z,71.4
2017-09-16T04:04:26.750Z,71.4
2017-09-16T04:05:29.131Z,71.4
2017-09-16T04:06:31.522Z,71.5
2017-09-16T04:07:33.912Z,71.5
2017-09-16T04:08:36.353Z,71.5
2017-09-16T04:09:38.737Z,71.4
2017-09-16T04:10:41.124Z,71.5
2017-09-16T04:11:43.851Z,71.5
2017-09-16T04:12:46.246Z,71.6
2017-09-16T04:13:48.635Z,71.6
2017-09-16T04:14:51.011Z,71.6
2017-09-16T04:15:53.401Z,71.7
2017-09-16T04:16:55.810Z,71.7
2017-09-16T04:17:58.193Z,71.7
2017-09-16T04:19:00.586Z,71.7
2017-09-16T04:20:02.964Z,71.7
2017-09-16T04:21:05.344Z,71.7
2017-09-16T04:22:07.743Z,71.7
2017-09-16T04:23:10.129Z,71.7
2017-09-16T04:24:12.850Z,71.7
2017-09-16T04:25:15.585Z,71.8
2017-09-16T04:26:17.973Z,71.7
2017-09-16T04:27:20.374Z,71.7
2017-09-16T04:28:23.120Z,71.6
2017-09-16T04:29:25.868Z,71.6
2017-09-16T04:30:28.313Z,71.7
2017-09-16T04:31:30.735Z,71.7
2017-09-16T04:32:33.176Z,71.7
2017-09-16T04:33:35.617Z,71.7
2017-09-16T04:34:38.087Z,71.7
2017-09-16T04:35:40.539Z,71.7
2017-09-16T04:36:42.997Z,71.6
2017-09-16T04:37:45.459Z,71.6
2017-09-16T04:38:47.886Z,71.7
2017-09-16T04:39:50.362Z,71.7
2017-09-16T04:40:52.812Z,71.7
2017-09-16T04:41:55.618Z,71.8
2017-09-16T04:42:58.419Z,71.7
2017-09-16T04:44:00.869Z,71.8
2017-09-16T04:45:03.308Z,71.8
2017-09-16T04:46:05.776Z,71.9
2017-09-16T04:47:08.227Z,71.7
2017-09-16T04:48:10.688Z,71.8
2017-09-16T04:49:13.143Z,71.9
2017-09-16T04:50:15.587Z,71.9
2017-09-16T04:51:18.036Z,71.9
2017-09-16T04:52:20.488Z,71.9
2017-09-16T04:53:23.276Z,72
2017-09-16T04:54:25.736Z,72
2017-09-16T04:55:28.182Z,72
2017-09-16T04:56:31.316Z,72.1
2017-09-16T04:57:34.100Z,72.1
2017-09-16T04:58:36.550Z,72
2017-09-16T04:59:38.992Z,72.1
2017-09-16T05:00:41.432Z,72.1
2017-09-16T05:01:43.887Z,72
2017-09-16T05:02:46.653Z,72.1
2017-09-16T05:03:49.100Z,72
2017-09-16T05:04:51.565Z,72.1
2017-09-16T05:05:54.011Z,72
2017-09-16T05:06:56.458Z,72.2
2017-09-16T05:07:58.900Z,72.2
2017-09-16T05:09:01.347Z,72.2
2017-09-16T05:10:03.815Z,72.2
2017-09-16T05:11:06.253Z,72.3
2017-09-16T05:12:08.683Z,72.3
2017-09-16T05:13:11.138Z,72.3
2017-09-16T05:14:13.583Z,72.3
2017-09-16T05:15:16.047Z,72.3
2017-09-16T05:16:18.491Z,72.4
2017-09-16T05:17:20.944Z,72.3
2017-09-16T05:18:23.398Z,72.3
2017-09-16T05:19:25.850Z,72.3
2017-09-16T05:20:28.318Z,72.3
2017-09-16T05:21:30.764Z,72.2
2017-09-16T05:22:33.196Z,72.2
2017-09-16T05:23:35.652Z,72.3
2017-09-16T05:24:38.104Z,72.3
2017-09-16T05:25:40.551Z,72.3
2017-09-16T05:26:43.000Z,72.2
2017-09-16T05:27:45.449Z,72.3
2017-09-16T05:28:47.885Z,72.3
2017-09-16T05:29:50.334Z,72.3
2017-09-16T05:30:52.786Z,72.3
2017-09-16T05:31:55.276Z,72.3
2017-09-16T05:32:57.717Z,72.5
2017-09-16T05:34:00.534Z,72.4
2017-09-16T05:35:02.975Z,72.3
2017-09-16T05:36:05.416Z,72.4
2017-09-16T05:37:08.196Z,72.5
2017-09-16T05:38:10.849Z,72.5
2017-09-16T05:39:13.288Z,72.4
2017-09-16T05:40:15.736Z,72.4
2017-09-16T05:41:18.181Z,72.3
2017-09-16T05:42:20.621Z,72.4
2017-09-16T05:43:23.089Z,72.4
2017-09-16T05:44:25.542Z,72.4
2017-09-16T05:45:27.985Z,72.4
2017-09-16T05:46:30.430Z,72.4
2017-09-16T05:47:32.892Z,72.5
2017-09-16T05:48:35.348Z,72.5
2017-09-16T05:49:37.883Z,72.6
2017-09-16T05:50:40.324Z,72.7
2017-09-16T05:51:42.762Z,72.7
2017-09-16T05:52:45.205Z,72.7
2017-09-16T05:53:47.705Z,72.7
2017-09-16T05:54:50.158Z,72.9
2017-09-16T05:55:52.599Z,72.6
2017-09-16T05:56:55.048Z,72.6
2017-09-16T05:57:57.491Z,72.8
2017-09-16T05:59:00.020Z,72.8
2017-09-16T06:00:02.810Z,72.9
2017-09-16T06:01:05.245Z,72.9
2017-09-16T06:02:07.684Z,72.9
2017-09-16T06:03:10.131Z,72.9
2017-09-16T06:04:12.572Z,72.9
2017-09-16T06:05:15.005Z,72.9
2017-09-16T06:06:17.446Z,73
2017-09-16T06:07:19.883Z,72.9
2017-09-16T06:08:22.327Z,73
2017-09-16T06:09:24.825Z,73
2017-09-16T06:10:27.271Z,73.1
2017-09-16T06:11:29.710Z,72.9
2017-09-16T06:12:32.157Z,72.9
2017-09-16T06:13:34.608Z,72.9
2017-09-16T06:14:37.053Z,72.9
2017-09-16T06:15:39.843Z,72.9
2017-09-16T06:16:42.628Z,72.9
2017-09-16T06:17:45.060Z,72.9
2017-09-16T06:18:47.506Z,72.8
2017-09-16T06:19:49.941Z,72.7
2017-09-16T06:20:52.395Z,72.8
2017-09-16T06:21:54.836Z,72.8
2017-09-16T06:22:57.273Z,72.8
2017-09-16T06:23:59.724Z,72.8
2017-09-16T06:25:02.184Z,72.7
2017-09-16T06:26:04.629Z,72.7
2017-09-16T06:27:07.074Z,72.8
2017-09-16T06:28:09.513Z,72.7
2017-09-16T06:29:11.952Z,72.9
2017-09-16T06:30:14.405Z,72.8
2017-09-16T06:31:16.850Z,72.7
2017-09-16T06:32:19.614Z,72.8
2017-09-16T06:33:21.997Z,72.9
2017-09-16T06:34:24.385Z,72.9
2017-09-16T06:35:26.785Z,72.9
2017-09-16T06:36:29.174Z,73.1
2017-09-16T06:37:31.567Z,73
2017-09-16T06:38:33.974Z,73.1
2017-09-16T06:39:36.366Z,73
2017-09-16T06:40:39.116Z,73
2017-09-16T06:41:41.512Z,73
2017-09-16T06:42:43.908Z,73
2017-09-16T06:43:46.313Z,72.9
2017-09-16T06:44:48.729Z,72.8
2017-09-16T06:45:51.124Z,72.9
2017-09-16T06:46:53.508Z,72.9
2017-09-16T06:47:55.897Z,72.9
2017-09-16T06:48:58.291Z,72.9
2017-09-16T06:50:01.044Z,72.9
2017-09-16T06:51:03.781Z,72.8
2017-09-16T06:52:06.174Z,72.6
2017-09-16T06:53:08.581Z,72.7
2017-09-16T06:54:10.983Z,72.7
2017-09-16T06:55:13.406Z,72.9
2017-09-16T06:56:15.803Z,72.9
2017-09-16T06:57:18.235Z,72.7
2017-09-16T06:58:20.651Z,72.8
2017-09-16T06:59:23.034Z,72.7
2017-09-16T07:00:25.438Z,72.8
2017-09-16T07:01:27.886Z,72.7
2017-09-16T07:02:30.274Z,72.7
2017-09-16T07:03:32.690Z,72.8
2017-09-16T07:04:35.417Z,72.7
2017-09-16T07:05:37.818Z,72.5
2017-09-16T07:06:40.220Z,72.5
2017-09-16T07:07:42.625Z,72.5
2017-09-16T07:08:45.023Z,72.7
2017-09-16T07:09:47.422Z,72.7
2017-09-16T07:10:49.807Z,72.6
2017-09-16T07:11:52.214Z,72.6
2017-09-16T07:12:54.619Z,72.6
2017-09-16T07:13:57.006Z,72.5
2017-09-16T07:14:59.762Z,72.4
2017-09-16T07:16:02.156Z,72.3
2017-09-16T07:17:04.551Z,72.3
2017-09-16T07:18:06.961Z,72.3
2017-09-16T07:19:09.700Z,72.3
2017-09-16T07:20:12.094Z,72.1
2017-09-16T07:21:14.497Z,72
2017-09-16T07:22:17.246Z,71.8
2017-09-16T07:23:19.642Z,71.7
2017-09-16T07:24:22.031Z,71.7
2017-09-16T07:25:24.414Z,71.7
2017-09-16T07:26:26.811Z,71.7
2017-09-16T07:27:29.206Z,71.7
2017-09-16T07:28:31.938Z,71.8
2017-09-16T07:29:34.340Z,71.8
2017-09-16T07:30:36.740Z,71.9
2017-09-16T07:31:39.132Z,71.9
2017-09-16T07:32:41.518Z,71.9
2017-09-16T07:33:43.908Z,72.1
2017-09-16T07:34:46.641Z,72.2
2017-09-16T07:35:49.034Z,72.3
2017-09-16T07:36:51.429Z,72.3
2017-09-16T07:37:54.496Z,72.2
2017-09-16T07:38:56.888Z,72.2
2017-09-16T07:39:59.281Z,72.2
2017-09-16T07:41:01.673Z,72.2
2017-09-16T07:42:04.059Z,72.1
2017-09-16T07:43:06.453Z,72.2
2017-09-16T07:44:08.845Z,71.9
2017-09-16T07:45:11.239Z,71.9
2017-09-16T07:46:13.627Z,71.7
2017-09-16T07:47:16.017Z,71.8
2017-09-16T07:48:18.415Z,71.7
2017-09-16T07:49:20.811Z,71.7
2017-09-16T07:50:23.401Z,71.7
2017-09-16T07:51:25.796Z,71.7
2017-09-16T07:52:28.186Z,71.8
2017-09-16T07:53:30.573Z,71.9
2017-09-16T07:54:32.972Z,71.9
2017-09-16T07:55:35.366Z,71.9
2017-09-16T07:56:37.758Z,72
2017-09-16T07:57:40.164Z,71.7
2017-09-16T07:58:42.552Z,71.6
2017-09-16T07:59:44.956Z,71.3
2017-09-16T08:00:47.349Z,71.6
2017-09-16T08:01:49.738Z,71.7
2017-09-16T08:02:52.125Z,71.5
2017-09-16T08:03:54.527Z,71.5
2017-09-16T08:04:56.911Z,71.5
2017-09-16T08:05:59.307Z,71.6
2017-09-16T08:07:01.695Z,71.4
2017-09-16T08:08:04.432Z,71.7
2017-09-16T08:09:06.821Z,71.5
2017-09-16T08:10:09.217Z,71.6
2017-09-16T08:11:11.613Z,71.7
2017-09-16T08:12:14.020Z,71.6
2017-09-16T08:13:16.405Z,71.7
2017-09-16T08:14:18.802Z,71.6
2017-09-16T08:15:21.190Z,71.7
2017-09-16T08:16:23.582Z,72.1
2017-09-16T08:17:26.000Z,72
2017-09-16T08:18:28.730Z,71.9
2017-09-16T08:19:31.465Z,72.5
2017-09-16T08:20:34.227Z,73.1
2017-09-16T08:21:36.622Z,73.7
2017-09-16T08:22:39.019Z,74.1
2017-09-16T08:23:41.416Z,74.7
2017-09-16T08:24:43.815Z,74.9
2017-09-16T08:25:46.204Z,74.1
2017-09-16T08:26:48.593Z,73.9
2017-09-16T08:27:50.989Z,74.2
2017-09-16T08:28:53.383Z,74.5
2017-09-16T08:29:55.782Z,74.7
2017-09-16T08:30:58.175Z,74.5
2017-09-16T08:32:00.565Z,74.7
2017-09-16T08:33:02.968Z,74.7
2017-09-16T08:34:05.363Z,74.8
2017-09-16T08:35:07.760Z,74.7
2017-09-16T08:36:10.153Z,73.6
2017-09-16T08:37:12.545Z,74
2017-09-16T08:38:14.951Z,74.1
2017-09-16T08:39:17.361Z,73.9
2017-09-16T08:40:19.759Z,74
2017-09-16T08:41:22.156Z,74.4
2017-09-16T08:42:24.560Z,75.2
2017-09-16T08:43:26.957Z,75.2
2017-09-16T08:44:29.694Z,75.2
2017-09-16T08:45:32.093Z,74.9
2017-09-16T08:46:34.492Z,74.9
2017-09-16T08:47:36.897Z,75.1
2017-09-16T08:48:39.656Z,75.3
2017-09-16T08:49:42.056Z,73.5
2017-09-16T08:50:44.458Z,73.5
2017-09-16T08:51:46.863Z,73.5
2017-09-16T08:52:49.268Z,73.6
2017-09-16T08:53:52.027Z,72.4
2017-09-16T08:54:54.433Z,72.6
2017-09-16T08:55:56.826Z,72.6
2017-09-16T08:56:59.224Z,72.5
2017-09-16T08:58:01.623Z,72.9
2017-09-16T08:59:04.024Z,72.5
2017-09-16T09:00:06.423Z,72.9
2017-09-16T09:01:08.827Z,72.9
2017-09-16T09:02:11.224Z,72.1
2017-09-16T09:03:13.624Z,71.8
2017-09-16T09:04:16.030Z,72.4
2017-09-16T09:05:18.782Z,72.4
2017-09-16T09:06:21.184Z,72.1
2017-09-16T09:07:23.585Z,71.9
2017-09-16T09:08:25.980Z,71.8
2017-09-16T09:09:28.392Z,72.1
2017-09-16T09:10:30.800Z,71.5
2017-09-16T09:11:33.205Z,71.3
2017-09-16T09:12:35.606Z,70.8
2017-09-16T09:13:38.013Z,70.3
2017-09-16T09:14:40.419Z,68.6
2017-09-16T09:15:42.816Z,67.2
2017-09-16T09:16:45.221Z,66.9
2017-09-16T09:17:47.627Z,66.5
2017-09-16T09:18:50.035Z,66.1
2017-09-16T09:19:52.438Z,66.8
2017-09-16T09:20:54.836Z,67.5
2017-09-16T09:21:57.243Z,67.5
2017-09-16T09:22:59.648Z,67.7
2017-09-16T09:24:02.043Z,67.7
2017-09-16T09:25:04.445Z,68
2017-09-16T09:26:06.850Z,67.9
2017-09-16T09:27:09.255Z,67.1
2017-09-16T09:28:11.656Z,67
2017-09-16T09:29:14.065Z,67.2
2017-09-16T09:30:16.470Z,65.8
2017-09-16T09:31:19.207Z,64.9
2017-09-16T09:32:21.615Z,63.8
2017-09-16T09:33:24.022Z,62.9
2017-09-16T09:34:26.423Z,62.4
2017-09-16T09:35:28.830Z,62.2
2017-09-16T09:36:31.224Z,62.1
2017-09-16T09:37:33.627Z,62.3
2017-09-16T09:38:36.030Z,62.4
2017-09-16T09:39:38.783Z,62.7
2017-09-16T09:40:41.518Z,63.3
2017-09-16T09:41:43.924Z,63.3
2017-09-16T09:42:46.321Z,62.9
2017-09-16T09:43:48.726Z,62.5
2017-09-16T09:44:51.136Z,62.2
2017-09-16T09:45:53.536Z,61.9
2017-09-16T09:46:55.941Z,61.3
2017-09-16T09:47:58.353Z,59.2
2017-09-16T09:49:00.747Z,59.1
2017-09-16T09:50:03.499Z,59.3
2017-09-16T09:51:05.901Z,59.6
2017-09-16T09:52:08.304Z,59.8
2017-09-16T09:53:10.712Z,60
2017-09-16T09:54:13.123Z,60.8
2017-09-16T09:55:15.540Z,62.3
2017-09-16T09:56:17.944Z,62.9
2017-09-16T09:57:20.359Z,62.3
2017-09-16T09:58:22.777Z,62.9
2017-09-16T09:59:25.517Z,62.9
2017-09-16T10:00:27.918Z,62.9
2017-09-16T10:01:30.335Z,63.2
2017-09-16T10:02:32.748Z,62.3
2017-09-16T10:03:35.153Z,61.9
2017-09-16T10:04:37.567Z,62.6
2017-09-16T10:05:39.972Z,62.1
2017-09-16T10:06:42.370Z,61.7
2017-09-16T10:07:44.769Z,60.9
2017-09-16T10:08:47.163Z,60.1
2017-09-16T10:09:49.905Z,59.5
2017-09-16T10:10:52.649Z,59.6
2017-09-16T10:11:55.079Z,60
2017-09-16T10:12:57.487Z,60.3
2017-09-16T10:13:59.901Z,60.4
2017-09-16T10:15:02.300Z,60.6
2017-09-16T10:16:04.711Z,61.1
2017-09-16T10:17:07.132Z,62.1
2017-09-16T10:18:09.884Z,63.1
2017-09-16T10:19:12.279Z,62.9
2017-09-16T10:20:14.683Z,62.3
2017-09-16T10:21:17.086Z,61.8
2017-09-16T10:22:19.487Z,61
2017-09-16T10:23:21.894Z,60.5
2017-09-16T10:24:24.299Z,60.5
2017-09-16T10:25:27.046Z,60.6
2017-09-16T10:26:29.449Z,60.8
2017-09-16T10:27:31.843Z,60
2017-09-16T10:28:34.607Z,59.1
2017-09-16T10:29:37.687Z,59
2017-09-16T10:30:40.109Z,59.6
2017-09-16T10:31:43.219Z,60.2
2017-09-16T10:32:45.622Z,60.2
2017-09-16T10:33:48.021Z,60.1
2017-09-16T10:34:50.418Z,60.2
2017-09-16T10:35:52.821Z,61
2017-09-16T10:36:55.244Z,61.7
2017-09-16T10:37:57.977Z,62.1
2017-09-16T10:39:00.365Z,62
2017-09-16T10:40:02.775Z,62.4
2017-09-16T10:41:05.176Z,62.3
2017-09-16T10:42:07.582Z,61.8
2017-09-16T10:43:09.982Z,61.6
2017-09-16T10:44:12.383Z,61.6
2017-09-16T10:45:14.832Z,61.8
2017-09-16T10:46:17.976Z,61.7
2017-09-16T10:47:20.377Z,61.3
2017-09-16T10:48:22.810Z,60.8
2017-09-16T10:49:25.234Z,60.9
2017-09-16T10:50:27.648Z,61.1
2017-09-16T10:51:30.057Z,60
2017-09-16T10:52:32.461Z,59.5
2017-09-16T10:53:34.859Z,58.8
2017-09-16T10:54:37.282Z,58.1
2017-09-16T10:55:39.674Z,57.7
2017-09-16T10:56:42.074Z,57.4
2017-09-16T10:57:44.484Z,56.8
2017-09-16T10:58:46.910Z,56.4
2017-09-16T10:59:49.306Z,56.5
2017-09-16T11:00:52.053Z,56.7
2017-09-16T11:01:54.466Z,57.2
2017-09-16T11:02:56.869Z,57.8
2017-09-16T11:03:59.282Z,58
2017-09-16T11:05:01.702Z,57.7
2017-09-16T11:06:04.104Z,57.3
2017-09-16T11:07:06.506Z,57.3
2017-09-16T11:08:09.245Z,57.6
2017-09-16T11:09:11.673Z,58
2017-09-16T11:10:14.070Z,58.5
2017-09-16T11:11:16.483Z,58.8
2017-09-16T11:12:18.908Z,58.7
2017-09-16T11:13:21.667Z,58
2017-09-16T11:14:24.067Z,57
2017-09-16T11:15:26.812Z,57.5
2017-09-16T11:16:29.221Z,56.5
2017-09-16T11:17:31.640Z,56.3
2017-09-16T11:18:34.033Z,56.6
2017-09-16T11:19:36.784Z,55.7
2017-09-16T11:20:39.199Z,55.5
2017-09-16T11:21:41.608Z,55.5
2017-09-16T11:22:44.354Z,56
2017-09-16T11:23:46.789Z,55.6
2017-09-16T11:24:49.184Z,55.6
2017-09-16T11:25:51.627Z,55.6
2017-09-16T11:26:54.088Z,55.5
2017-09-16T11:27:56.488Z,55.4
2017-09-16T11:28:58.902Z,55.4
2017-09-16T11:30:01.323Z,55.4
2017-09-16T11:31:03.719Z,55.3
2017-09-16T11:32:06.119Z,55.3
2017-09-16T11:33:08.528Z,55.3
2017-09-16T11:34:11.276Z,55.3
2017-09-16T11:35:13.714Z,55.4
2017-09-16T11:36:16.116Z,55.6
2017-09-16T11:37:18.508Z,55
2017-09-16T11:38:21.252Z,54.9
2017-09-16T11:39:23.681Z,54.8
2017-09-16T11:40:26.132Z,53.6
2017-09-16T11:41:28.539Z,52.9
2017-09-16T11:42:30.976Z,52.9
2017-09-16T11:43:33.383Z,52.8
2017-09-16T11:44:35.813Z,52.6
2017-09-16T11:45:38.215Z,52.4
2017-09-16T11:46:40.630Z,52.4
2017-09-16T11:47:43.071Z,52.1
2017-09-16T11:48:45.482Z,52.2
2017-09-16T11:49:47.895Z,52.8
2017-09-16T11:50:50.299Z,53
2017-09-16T11:51:52.696Z,52.8
2017-09-16T11:52:55.116Z,52.8
2017-09-16T11:53:57.912Z,52.9
2017-09-16T11:55:00.307Z,52.4
2017-09-16T11:56:02.707Z,52.1
2017-09-16T11:57:05.112Z,50.3
2017-09-16T11:58:07.855Z,50.4
2017-09-16T11:59:10.263Z,50.9
2017-09-16T12:00:12.671Z,51.3
2017-09-16T12:01:15.069Z,51.7
2017-09-16T12:02:17.487Z,51.1
2017-09-16T12:03:20.218Z,51.1
2017-09-16T12:04:22.963Z,51.2
2017-09-16T12:05:25.369Z,50.9
2017-09-16T12:06:27.774Z,50.4
2017-09-16T12:07:30.180Z,50.8
2017-09-16T12:08:32.592Z,51.1
2017-09-16T12:09:34.994Z,51.2
2017-09-16T12:10:37.399Z,51.6
2017-09-16T12:11:39.798Z,52
2017-09-16T12:12:42.210Z,52.4
2017-09-16T12:13:44.969Z,52.5
2017-09-16T12:14:47.369Z,52.4
2017-09-16T12:15:49.771Z,52.5
2017-09-16T12:16:52.168Z,52.8
2017-09-16T12:17:54.796Z,53
2017-09-16T12:18:57.201Z,53
2017-09-16T12:19:59.606Z,53.6
2017-09-16T12:21:02.019Z,54
2017-09-16T12:22:04.426Z,54.7
2017-09-16T12:23:06.831Z,54.6
2017-09-16T12:24:09.235Z,54.1
2017-09-16T12:25:11.637Z,53.7
2017-09-16T12:26:14.035Z,53.5
2017-09-16T12:27:16.445Z,53.1
2017-09-16T12:28:18.845Z,53
2017-09-16T12:29:21.257Z,52.6
2017-09-16T12:30:23.664Z,52.7
2017-09-16T12:32:17.630Z,52.9
2017-09-16T12:33:20.081Z,53.2
2017-09-16T12:34:22.550Z,53
2017-09-16T12:35:25.001Z,52.8
2017-09-16T12:36:27.460Z,52.8
2017-09-16T12:37:29.916Z,52.8
2017-09-16T12:38:32.577Z,52.7
2017-09-16T12:39:35.032Z,52.3
2017-09-16T12:40:37.494Z,51.8
2017-09-16T12:41:39.951Z,52.3
2017-09-16T12:42:42.419Z,52.1
2017-09-16T12:43:45.222Z,51.1
2017-09-16T12:44:47.671Z,50.3
2017-09-16T12:45:50.130Z,50
2017-09-16T12:46:52.596Z,50.2
2017-09-16T12:47:55.418Z,50.4
2017-09-16T12:48:57.882Z,50.7
2017-09-16T12:50:00.337Z,50.3
2017-09-16T12:51:02.795Z,50.7
2017-09-16T12:52:05.260Z,50.4
2017-09-16T12:53:07.718Z,50.2
2017-09-16T12:54:10.184Z,50.1
2017-09-16T12:55:12.643Z,49.7
2017-09-16T12:56:15.097Z,49.8
2017-09-16T12:57:17.554Z,49.3
2017-09-16T12:58:20.023Z,49.6
2017-09-16T12:59:22.481Z,49.4
2017-09-16T13:00:24.950Z,49.6
2017-09-16T13:01:27.437Z,49.7
2017-09-16T13:02:30.249Z,49.7
2017-09-16T13:03:32.711Z,49.3
2017-09-16T13:04:35.179Z,48.7
2017-09-16T13:05:37.637Z,48.5
2017-09-16T13:06:40.099Z,48.7
2017-09-16T13:07:42.555Z,48.6
2017-09-16T13:08:45.024Z,48.6
2017-09-16T13:09:47.487Z,48.4
2017-09-16T13:10:49.951Z,48.2
2017-09-16T13:11:52.414Z,48.4
2017-09-16T13:12:54.887Z,48
2017-09-16T13:13:57.685Z,47.6
2017-09-16T13:15:00.153Z,47.8
2017-09-16T13:16:02.609Z,47.7
2017-09-16T13:17:05.067Z,47.8
2017-09-16T13:18:07.544Z,47.6
2017-09-16T13:19:10.008Z,47.9
2017-09-16T13:20:12.470Z,48
2017-09-16T13:21:14.933Z,48.2
2017-09-16T13:22:17.398Z,48.1
2017-09-16T13:23:19.865Z,48.2
2017-09-16T13:24:22.331Z,48
2017-09-16T13:25:24.787Z,48
2017-09-16T13:26:27.595Z,48.1
2017-09-16T13:27:30.062Z,48.3
2017-09-16T13:28:32.858Z,48.6
2017-09-16T13:29:35.321Z,48.8
2017-09-16T13:30:37.789Z,48.9
2017-09-16T13:31:40.249Z,49.1
2017-09-16T13:32:42.706Z,49.2
2017-09-16T13:33:45.519Z,49.3
2017-09-16T13:34:47.989Z,49.3
2017-09-16T13:35:50.443Z,49.2
2017-09-16T13:36:52.901Z,49.2
2017-09-16T13:37:55.358Z,49.4
2017-09-16T13:38:57.817Z,49.6
2017-09-16T13:40:00.285Z,50
2017-09-16T13:41:02.744Z,50.2
2017-09-16T13:42:05.207Z,50.4
2017-09-16T13:43:07.671Z,50.5
2017-09-16T13:44:10.128Z,50.7
2017-09-16T13:45:12.934Z,50.8
2017-09-16T13:46:15.388Z,50.8
2017-09-16T13:47:18.195Z,50.8
2017-09-16T13:48:20.659Z,50.8
2017-09-16T13:49:23.460Z,50.8
2017-09-16T13:50:25.921Z,50.8
2017-09-16T13:51:28.386Z,50.9
2017-09-16T13:52:30.849Z,50.9
2017-09-16T13:53:33.650Z,51
2017-09-16T13:54:36.109Z,51.2
2017-09-16T13:55:38.561Z,51.1
2017-09-16T13:56:41.027Z,51.2